createdAt,value
2018-02-19T00:00:49.571Z,74.60
2018-02-19T00:03:17.683Z,74.70
2018-02-19T00:05:45.823Z,74.80
2018-02-19T00:08:13.925Z,75.20
2018-02-19T00:10:42.031Z,75.00
2018-02-19T00:13:11.120Z,75.00
2018-02-19T00:15:39.419Z,74.80
2018-02-19T00:18:07.526Z,74.70
2018-02-19T00:20:35.759Z,74.40
2018-02-19T00:23:03.832Z,75.30
2018-02-19T00:25:31.939Z,74.70
2018-02-19T00:28:00.864Z,75.60
2018-02-19T00:30:28.967Z,74.90
2018-02-19T00:32:57.065Z,74.60
2018-02-19T00:35:25.312Z,74.40
2018-02-19T00:37:53.416Z,74.50
2018-02-19T00:40:22.291Z,74.50
2018-02-19T00:42:50.456Z,74.50
2018-02-19T00:45:18.555Z,75.10
2018-02-19T00:47:47.423Z,75.00
2018-02-19T00:50:15.588Z,75.10
2018-02-19T00:52:43.687Z,74.90
2018-02-19T00:55:12.553Z,75.00
2018-02-19T00:57:40.792Z,75.10
2018-02-19T01:00:08.880Z,75.00
2018-02-19T01:02:36.978Z,75.00
2018-02-19T01:05:05.137Z,75.00
2018-02-19T01:07:33.239Z,75.10
2018-02-19T01:10:02.111Z,75.30
2018-02-19T01:12:30.260Z,75.40
2018-02-19T01:14:58.358Z,75.00
2018-02-19T01:17:26.512Z,74.70
2018-02-19T01:19:54.698Z,74.40
2018-02-19T01:22:22.794Z,74.50
2018-02-19T01:24:51.081Z,75.00
2018-02-19T01:27:21.278Z,75.00
2018-02-19T01:29:49.396Z,75.00
2018-02-19T01:32:17.496Z,75.00
2018-02-19T01:34:45.660Z,74.80
2018-02-19T01:37:13.754Z,74.60
2018-02-19T01:39:41.856Z,74.40
2018-02-19T01:42:10.775Z,73.50
2018-02-19T01:44:38.867Z,73.60
2018-02-19T01:47:06.959Z,73.10
2018-02-19T01:49:35.103Z,72.90
2018-02-19T01:52:03.212Z,73.70
2018-02-19T01:54:31.297Z,74.00
2018-02-19T01:57:00.487Z,75.20
2018-02-19T01:59:28.595Z,75.10
2018-02-19T02:01:56.695Z,75.60
2018-02-19T02:04:24.899Z,73.90
2018-02-19T02:06:52.988Z,73.90
2018-02-19T02:09:21.867Z,74.60
2018-02-19T02:11:50.013Z,74.70
2018-02-19T02:14:18.108Z,73.90
2018-02-19T02:16:46.204Z,73.10
2018-02-19T02:19:15.148Z,73.70
2018-02-19T02:21:44.020Z,74.70
2018-02-19T02:24:12.108Z,74.80
2018-02-19T02:26:40.376Z,75.20
2018-02-19T02:29:08.497Z,74.70
2018-02-19T02:31:36.553Z,74.50
2018-02-19T02:34:04.730Z,74.50
2018-02-19T02:36:32.829Z,74.00
2018-02-19T02:39:00.919Z,74.00
2018-02-19T02:41:29.288Z,74.10
2018-02-19T02:43:58.140Z,73.50
2018-02-19T02:46:26.259Z,73.50
2018-02-19T02:48:54.498Z,73.40
2018-02-19T02:51:23.356Z,73.40
2018-02-19T02:53:51.445Z,73.40
2018-02-19T02:56:19.591Z,73.70
2018-02-19T02:58:47.688Z,73.70
2018-02-19T03:01:15.787Z,74.00
2018-02-19T03:03:44.717Z,73.90
2018-02-19T03:06:12.813Z,74.00
2018-02-19T03:08:40.914Z,74.20
2018-02-19T03:11:09.834Z,74.30
2018-02-19T03:13:37.939Z,74.20
2018-02-19T03:16:06.036Z,74.00
2018-02-19T03:18:34.168Z,73.90
2018-02-19T03:21:02.342Z,73.90
2018-02-19T03:23:30.438Z,73.70
2018-02-19T03:25:58.657Z,74.10
2018-02-19T03:28:26.752Z,74.30
2018-02-19T03:30:54.844Z,74.30
2018-02-19T03:33:22.989Z,74.60
2018-02-19T03:35:51.095Z,74.40
2018-02-19T03:38:19.181Z,74.50
2018-02-19T03:40:47.322Z,75.00
2018-02-19T03:43:15.423Z,74.90
2018-02-19T03:45:43.516Z,75.00
2018-02-19T03:48:12.484Z,74.40
2018-02-19T03:50:40.599Z,74.40
2018-02-19T03:53:08.684Z,74.60
2018-02-19T03:55:36.842Z,74.50
2018-02-19T03:58:10.495Z,74.50
2018-02-19T04:00:39.934Z,74.50
2018-02-19T04:03:08.798Z,74.20
2018-02-19T04:05:36.896Z,74.20
2018-02-19T04:08:05.856Z,73.60
2018-02-19T04:10:33.948Z,74.30
2018-02-19T04:13:02.817Z,75.50
2018-02-19T04:15:30.996Z,74.70
2018-02-19T04:17:59.088Z,74.60
2018-02-19T04:20:27.955Z,74.50
2018-02-19T04:22:56.139Z,74.50
2018-02-19T04:25:25.020Z,74.80
2018-02-19T04:27:53.099Z,74.10
2018-02-19T04:30:21.278Z,73.80
2018-02-19T04:32:49.407Z,74.60
2018-02-19T04:35:17.503Z,74.00
2018-02-19T04:37:45.656Z,74.30
2018-02-19T04:40:13.763Z,74.50
2018-02-19T04:42:41.863Z,74.80
2018-02-19T04:45:10.014Z,74.70
2018-02-19T04:47:38.872Z,74.90
2018-02-19T04:50:06.985Z,74.80
2018-02-19T04:52:35.916Z,75.10
2018-02-19T04:55:04.014Z,75.10
2018-02-19T04:57:32.109Z,75.40
2018-02-19T05:00:01.049Z,74.40
2018-02-19T05:02:29.148Z,74.40
2018-02-19T05:04:57.243Z,74.50
2018-02-19T05:07:26.204Z,74.30
2018-02-19T05:09:54.296Z,74.30
2018-02-19T05:12:22.389Z,74.50
2018-02-19T05:14:51.303Z,74.50
2018-02-19T05:17:19.398Z,74.50
2018-02-19T05:19:47.492Z,74.60
2018-02-19T05:22:15.624Z,74.30
2018-02-19T05:24:43.928Z,74.10
2018-02-19T05:27:12.028Z,73.90
2018-02-19T05:29:40.183Z,74.10
2018-02-19T05:32:08.294Z,74.70
2018-02-19T05:34:37.146Z,74.70
2018-02-19T05:37:05.303Z,74.80
2018-02-19T05:39:33.388Z,74.40
2018-02-19T05:42:01.510Z,74.40
2018-02-19T05:44:30.496Z,75.00
2018-02-19T05:46:58.593Z,74.90
2018-02-19T05:49:26.706Z,75.00
2018-02-19T05:51:54.837Z,75.00
2018-02-19T05:54:22.945Z,74.80
2018-02-19T05:56:51.158Z,74.40
2018-02-19T05:59:19.303Z,74.20
2018-02-19T06:01:47.399Z,74.20
2018-02-19T06:04:16.263Z,74.30
2018-02-19T06:06:44.435Z,74.30
2018-02-19T06:09:12.584Z,74.50
2018-02-19T06:11:40.679Z,74.20
2018-02-19T06:14:08.864Z,74.20
2018-02-19T06:16:37.730Z,73.70
2018-02-19T06:19:05.819Z,73.70
2018-02-19T06:21:33.984Z,74.10
2018-02-19T06:24:02.093Z,74.30
2018-02-19T06:26:30.986Z,74.40
2018-02-19T06:28:59.372Z,74.40
2018-02-19T06:31:27.464Z,74.40
2018-02-19T06:33:55.575Z,74.40
2018-02-19T06:36:23.708Z,74.50
2018-02-19T06:38:52.576Z,74.00
2018-02-19T06:41:20.687Z,74.00
2018-02-19T06:43:48.816Z,74.00
2018-02-19T06:46:16.916Z,74.20
2018-02-19T06:48:45.025Z,74.40
2018-02-19T06:51:13.196Z,74.40
2018-02-19T06:53:41.285Z,74.70
2018-02-19T06:56:10.773Z,74.50
2018-02-19T06:58:38.929Z,74.50
2018-02-19T07:01:07.034Z,74.10
2018-02-19T07:03:35.891Z,74.20
2018-02-19T07:06:04.039Z,74.10
2018-02-19T07:08:32.881Z,74.40
2018-02-19T07:11:01.750Z,74.10
2018-02-19T07:13:29.880Z,74.10
2018-02-19T07:15:57.995Z,74.20
2018-02-19T07:18:26.095Z,73.80
2018-02-19T07:20:55.198Z,73.70
2018-02-19T07:23:24.063Z,73.20
2018-02-19T07:25:52.200Z,73.20
2018-02-19T07:28:20.835Z,72.50
2018-02-19T07:30:49.704Z,71.40
2018-02-19T07:33:17.812Z,71.40
2018-02-19T07:35:45.980Z,70.80
2018-02-19T07:38:14.887Z,70.80
2018-02-19T07:40:43.001Z,70.50
2018-02-19T07:43:11.259Z,70.10
2018-02-19T07:45:39.371Z,69.60
2018-02-19T07:48:08.379Z,69.70
2018-02-19T07:50:36.536Z,69.70
2018-02-19T07:53:04.636Z,70.00
2018-02-19T07:55:32.735Z,69.90
2018-02-19T07:58:00.903Z,69.80
2018-02-19T08:00:29.494Z,69.90
2018-02-19T08:02:57.642Z,69.90
2018-02-19T08:05:25.786Z,69.40
2018-02-19T08:07:54.804Z,69.20
2018-02-19T08:10:22.973Z,68.50
2018-02-19T08:12:51.865Z,68.00
2018-02-19T08:15:20.023Z,68.00
2018-02-19T08:17:48.907Z,66.60
2018-02-19T08:20:17.848Z,66.10
2018-02-19T08:22:45.983Z,66.10
2018-02-19T08:25:14.931Z,65.40
2018-02-19T08:27:43.033Z,65.40
2018-02-19T08:30:11.911Z,65.40
2018-02-19T08:54:57.348Z,72.30
2018-02-19T09:01:53.633Z,22.10
2018-02-19T09:04:22.688Z,25.20
2018-02-19T09:06:51.747Z,27.10
2018-02-19T09:09:21.610Z,35.40
2018-02-19T09:11:50.704Z,35.30
2018-02-19T09:14:19.765Z,40.10
2018-02-19T09:16:48.874Z,43.50
2018-02-19T09:19:17.901Z,46.00
2018-02-19T09:21:47.013Z,47.80
2018-02-19T09:24:16.095Z,49.60
2018-02-19T09:26:45.157Z,51.00
2018-02-19T09:29:14.246Z,52.30
2018-02-19T09:31:43.375Z,52.60
2018-02-19T09:34:12.449Z,53.40
2018-02-19T09:36:42.123Z,52.20
2018-02-19T09:39:11.977Z,52.20
2018-02-19T09:41:41.104Z,52.10
2018-02-19T09:44:10.163Z,51.60
2018-02-19T09:46:39.237Z,50.60
2018-02-19T09:49:09.458Z,50.10
2018-02-19T09:51:38.545Z,48.80
2018-02-19T09:54:07.602Z,48.30
2018-02-19T09:56:36.691Z,48.80
2018-02-19T09:59:05.751Z,47.20
2018-02-19T10:01:34.829Z,46.10
2018-02-19T10:04:03.916Z,45.30
2018-02-19T10:06:32.975Z,45.10
2018-02-19T10:09:02.027Z,46.90
2018-02-19T10:11:31.105Z,46.20
2018-02-19T10:14:00.177Z,44.90
2018-02-19T10:16:29.262Z,43.30
2018-02-19T10:18:58.345Z,43.30
2018-02-19T10:21:27.401Z,41.60
2018-02-19T10:23:56.461Z,41.90
2018-02-19T10:26:26.326Z,42.20
2018-02-19T10:28:55.393Z,42.20
2018-02-19T10:31:24.447Z,41.10
2018-02-19T10:33:53.506Z,40.40
2018-02-19T10:36:22.601Z,40.80
2018-02-19T10:38:52.490Z,41.00
2018-02-19T10:41:21.569Z,40.90
2018-02-19T10:43:50.638Z,40.80
2018-02-19T10:46:19.714Z,40.00
2018-02-19T10:48:48.759Z,40.20
2018-02-19T10:51:17.844Z,38.90
2018-02-19T10:53:46.899Z,39.60
2018-02-19T10:56:15.995Z,39.40
2018-02-19T10:58:45.099Z,40.90
2018-02-19T11:01:14.180Z,40.60
2018-02-19T11:03:43.318Z,40.50
2018-02-19T11:06:12.387Z,40.20
2018-02-19T11:08:41.478Z,40.10
2018-02-19T11:11:10.596Z,39.40
2018-02-19T11:13:40.485Z,38.70
2018-02-19T11:16:10.427Z,38.70
2018-02-19T11:18:40.175Z,38.90
2018-02-19T11:21:09.302Z,37.90
2018-02-19T11:23:38.390Z,37.70
2018-02-19T11:26:07.437Z,37.00
2018-02-19T11:28:36.513Z,37.70
2018-02-19T11:31:06.336Z,37.10
2018-02-19T11:33:35.418Z,37.10
2018-02-19T11:36:05.256Z,34.20
2018-02-19T11:38:34.741Z,34.10
2018-02-19T11:41:04.560Z,32.00
2018-02-19T11:43:34.434Z,30.80
2018-02-19T11:46:03.513Z,30.80
2018-02-19T11:48:32.625Z,29.80
2018-02-19T11:51:01.701Z,30.30
2018-02-19T11:53:30.827Z,29.70
2018-02-19T11:55:59.921Z,29.30
2018-02-19T11:58:28.985Z,29.30
2018-02-19T12:00:58.065Z,29.20
2018-02-19T12:03:27.137Z,29.20
2018-02-19T12:05:56.992Z,30.90
2018-02-19T12:08:26.066Z,30.90
2018-02-19T12:10:55.157Z,31.00
2018-02-19T12:13:24.229Z,31.70
2018-02-19T12:15:53.309Z,32.50
2018-02-19T12:18:22.402Z,33.10
2018-02-19T12:20:51.438Z,33.70
2018-02-19T12:23:20.520Z,33.20
2018-02-19T12:25:49.702Z,33.60
2018-02-19T12:28:19.542Z,33.80
2018-02-19T12:30:48.613Z,33.80
2018-02-19T12:33:17.775Z,33.50
2018-02-19T12:35:47.608Z,33.00
2018-02-19T12:38:18.416Z,34.50
2018-02-19T12:40:47.909Z,34.40
2018-02-19T12:43:16.953Z,33.50
2018-02-19T12:45:46.777Z,33.50
2018-02-19T12:48:15.842Z,33.50
2018-02-19T12:50:45.714Z,34.10
2018-02-19T12:53:17.330Z,34.00
2018-02-19T12:55:46.408Z,33.30
2018-02-19T12:58:15.461Z,32.70
2018-02-19T13:00:44.530Z,33.10
2018-02-19T13:03:13.585Z,32.80
2018-02-19T13:05:42.637Z,33.20
2018-02-19T13:08:11.724Z,32.70
2018-02-19T13:10:40.817Z,33.30
2018-02-19T13:13:09.953Z,32.40
2018-02-19T13:15:39.005Z,33.80
2018-02-19T13:18:08.086Z,32.80
2018-02-19T13:20:37.892Z,30.90
2018-02-19T13:23:06.972Z,30.80
2018-02-19T13:25:36.798Z,30.70
2018-02-19T13:28:05.874Z,30.70
2018-02-19T13:30:35.728Z,29.60
2018-02-19T13:33:04.757Z,29.60
2018-02-19T13:35:33.871Z,30.00
2018-02-19T13:38:02.937Z,31.10
2018-02-19T13:40:31.997Z,32.40
2018-02-19T13:43:01.058Z,33.80
2018-02-19T13:45:30.900Z,35.00
2018-02-19T13:47:59.954Z,34.90
2018-02-19T13:50:29.026Z,34.80
2018-02-19T13:52:58.073Z,36.20
2018-02-19T13:55:27.156Z,37.20
2018-02-19T13:57:57.065Z,38.50
2018-02-19T14:00:26.132Z,38.50
2018-02-19T14:02:55.174Z,38.80
2018-02-19T14:05:24.257Z,38.40
2018-02-19T14:07:54.069Z,39.50
2018-02-19T14:10:23.913Z,39.70
2018-02-19T14:12:52.957Z,39.70
2018-02-19T14:15:22.034Z,40.00
2018-02-19T14:17:51.175Z,40.60
2018-02-19T14:20:20.256Z,40.20
2018-02-19T14:22:50.149Z,40.70
2018-02-19T14:25:19.202Z,40.60
2018-02-19T14:27:48.290Z,40.80
2018-02-19T14:30:17.360Z,41.90
2018-02-19T14:32:47.187Z,42.70
2018-02-19T14:35:16.281Z,42.70
2018-02-19T14:37:45.338Z,42.50
2018-02-19T14:40:14.430Z,42.30
2018-02-19T14:42:43.477Z,43.30
2018-02-19T14:45:12.568Z,42.80
2018-02-19T14:47:41.616Z,42.30
2018-02-19T14:50:10.698Z,42.60
2018-02-19T14:52:39.733Z,42.90
2018-02-19T14:55:10.663Z,42.70
2018-02-19T14:57:39.730Z,43.10
2018-02-19T15:00:08.822Z,43.00
2018-02-19T15:02:37.851Z,42.80
2018-02-19T15:05:07.700Z,43.20
2018-02-19T15:07:36.746Z,43.20
2018-02-19T15:10:06.592Z,43.40
2018-02-19T15:12:35.650Z,43.40
2018-02-19T15:15:05.458Z,44.10
2018-02-19T15:17:34.958Z,43.50
2018-02-19T15:20:04.038Z,44.50
2018-02-19T15:22:33.085Z,44.50
2018-02-19T15:25:02.200Z,44.50
2018-02-19T15:27:31.262Z,44.80
2018-02-19T15:30:01.097Z,45.60
2018-02-19T15:32:30.158Z,45.50
2018-02-19T15:34:59.227Z,45.80
2018-02-19T15:37:28.269Z,46.20
2018-02-19T15:39:57.382Z,46.50
2018-02-19T15:42:26.436Z,46.70
2018-02-19T15:44:56.324Z,48.40
2018-02-19T15:47:25.385Z,47.70
2018-02-19T15:49:54.525Z,48.00
2018-02-19T15:52:23.638Z,49.10
2018-02-19T15:54:53.491Z,49.30
2018-02-19T15:57:22.597Z,49.30
2018-02-19T15:59:51.649Z,49.50
2018-02-19T16:02:21.476Z,51.70
2018-02-19T16:04:50.602Z,51.70
2018-02-19T16:07:19.686Z,51.70
2018-02-19T16:09:48.769Z,51.60
2018-02-19T16:12:17.817Z,51.70
2018-02-19T16:14:46.899Z,52.00
2018-02-19T16:17:15.949Z,52.20
2018-02-19T16:19:45.009Z,53.00
2018-02-19T16:22:15.089Z,53.40
2018-02-19T16:24:44.185Z,53.60
2018-02-19T16:27:13.316Z,53.70
2018-02-19T16:29:42.348Z,54.10
2018-02-19T16:32:13.801Z,54.30
2018-02-19T16:34:42.878Z,54.60
2018-02-19T16:37:11.922Z,55.10
2018-02-19T16:39:41.001Z,56.10
2018-02-19T16:42:10.121Z,56.30
2018-02-19T16:44:39.154Z,56.50
2018-02-19T16:47:08.237Z,56.70
2018-02-19T16:49:38.079Z,57.90
2018-02-19T16:52:07.170Z,57.80
2018-02-19T16:54:36.213Z,59.00
2018-02-19T16:57:05.361Z,59.20
2018-02-19T16:59:34.468Z,59.10
2018-02-19T17:02:03.540Z,59.00
2018-02-19T17:04:32.834Z,59.20
2018-02-19T17:07:01.912Z,59.30
2018-02-19T17:09:31.909Z,60.10
2018-02-19T17:12:00.996Z,60.10
2018-02-19T17:14:31.058Z,60.30
2018-02-19T17:17:00.162Z,60.90
2018-02-19T17:19:29.253Z,61.00
2018-02-19T17:21:59.062Z,61.60
2018-02-19T17:24:28.145Z,61.50
2018-02-19T17:26:57.243Z,62.40
2018-02-19T17:29:27.120Z,63.30
2018-02-19T17:31:56.188Z,63.30
2018-02-19T17:34:25.278Z,63.60
2018-02-19T17:36:54.348Z,63.50
2018-02-19T17:39:23.418Z,63.70
2018-02-19T17:41:52.493Z,64.10
2018-02-19T17:44:22.541Z,63.70
2018-02-19T17:46:51.646Z,63.40
2018-02-19T17:49:20.714Z,63.00
2018-02-19T17:51:49.918Z,63.20
2018-02-19T17:54:19.343Z,63.10
2018-02-19T17:56:48.392Z,63.20
2018-02-19T17:59:17.479Z,63.80
2018-02-19T18:01:46.561Z,64.00
2018-02-19T18:04:15.665Z,63.90
2018-02-19T18:06:44.755Z,64.40
2018-02-19T18:09:13.947Z,64.70
2018-02-19T18:11:43.043Z,64.90
2018-02-19T18:14:12.108Z,64.90
2018-02-19T18:16:41.166Z,65.30
2018-02-19T18:19:11.126Z,65.70
2018-02-19T18:21:40.181Z,65.50
2018-02-19T18:24:09.295Z,65.80
2018-02-19T18:26:39.126Z,65.90
2018-02-19T18:29:08.584Z,65.90
2018-02-19T18:31:37.682Z,66.00
2018-02-19T18:34:06.839Z,66.80
2018-02-19T18:36:35.907Z,66.80
2018-02-19T18:39:04.994Z,66.80
2018-02-19T18:41:34.088Z,67.30
2018-02-19T18:44:03.945Z,67.60
2018-02-19T18:46:33.005Z,67.60
2018-02-19T18:49:02.106Z,67.40
2018-02-19T18:51:32.054Z,68.20
2018-02-19T18:54:01.127Z,68.10
2018-02-19T18:56:30.260Z,68.80
2018-02-19T18:58:59.339Z,69.30
2018-02-19T19:01:28.405Z,69.20
2018-02-19T19:03:57.505Z,69.00
2018-02-19T19:06:26.561Z,69.00
2018-02-19T19:23:50.530Z,70.10
2018-02-19T19:26:20.394Z,70.30
2018-02-19T19:28:49.600Z,70.20
2018-02-19T19:31:18.687Z,70.10
2018-02-19T19:33:47.768Z,70.50
2018-02-19T19:36:16.865Z,70.80
2018-02-19T19:38:46.005Z,70.90
2018-02-19T19:41:15.080Z,71.10
2018-02-19T19:43:44.173Z,71.10
2018-02-19T19:46:13.238Z,71.00
2018-02-19T19:48:42.326Z,71.00
2018-02-19T19:51:11.412Z,70.90
2018-02-19T19:53:40.558Z,71.10
2018-02-19T19:56:09.708Z,71.60
2018-02-19T19:58:39.586Z,72.10
2018-02-19T20:01:08.688Z,71.40
2018-02-19T20:03:37.955Z,71.40
2018-02-19T20:06:07.119Z,71.40
2018-02-19T20:08:36.523Z,71.60
2018-02-19T20:11:05.641Z,71.70
2018-02-19T20:13:34.809Z,71.90
2018-02-19T20:16:04.121Z,72.20
2018-02-19T20:18:33.633Z,73.40
2018-02-19T20:21:03.206Z,73.20
2018-02-19T20:23:37.097Z,72.10
2018-02-19T20:26:07.558Z,72.10
2018-02-19T20:28:36.683Z,72.20
2018-02-19T20:31:05.915Z,72.60
2018-02-19T20:33:35.095Z,72.10
2018-02-19T20:36:04.287Z,72.20
2018-02-19T20:38:34.978Z,72.10
2018-02-19T20:41:04.721Z,72.10
2018-02-19T20:43:33.899Z,72.20
2018-02-19T20:46:03.073Z,72.40
2018-02-19T20:48:33.125Z,72.20
2018-02-19T20:51:02.505Z,72.20
2018-02-19T20:53:31.832Z,72.40
2018-02-19T20:56:01.039Z,72.20
2018-02-19T20:58:30.135Z,72.10
2018-02-19T21:01:00.437Z,72.30
2018-02-19T21:03:29.527Z,72.60
2018-02-19T21:06:04.843Z,72.60
2018-02-19T21:08:34.716Z,73.60
2018-02-19T21:11:04.120Z,73.70
2018-02-19T21:13:33.230Z,74.00
2018-02-19T21:16:06.439Z,74.00
2018-02-19T21:18:35.896Z,73.80
2018-02-19T21:21:05.509Z,73.60
2018-02-19T21:23:38.771Z,72.80
2018-02-19T21:26:07.939Z,73.70
2018-02-19T21:28:38.074Z,74.20
2018-02-19T21:31:07.185Z,74.20
2018-02-19T21:33:36.520Z,74.10
2018-02-19T21:36:05.657Z,74.70
2018-02-19T21:38:35.782Z,75.80
2018-02-19T21:41:06.015Z,76.00
2018-02-19T21:43:35.115Z,76.10
2018-02-19T21:46:04.237Z,76.10
2018-02-19T21:48:33.364Z,76.20
2018-02-19T21:51:02.483Z,76.20
2018-02-19T21:53:32.037Z,76.60
2018-02-19T21:56:01.282Z,76.60
2018-02-19T21:58:31.221Z,76.50
2018-02-19T22:01:05.870Z,76.50
2018-02-19T22:03:35.256Z,75.80
2018-02-19T22:06:04.340Z,75.70
2018-02-19T22:08:33.639Z,76.00
2018-02-19T22:11:02.732Z,76.10
2018-02-19T22:13:32.095Z,75.80
2018-02-19T22:16:01.193Z,75.30
2018-02-19T22:18:31.120Z,75.80
2018-02-19T22:21:01.458Z,75.80
2018-02-19T22:23:31.477Z,75.30
2018-02-19T22:26:04.866Z,75.30
2018-02-19T22:28:35.065Z,75.80
2018-02-19T22:31:04.323Z,75.80
2018-02-19T22:33:33.540Z,76.30
2018-02-19T22:36:02.686Z,76.80
2018-02-19T22:38:32.796Z,77.80
2018-02-19T22:41:03.126Z,78.30
2018-02-19T22:43:32.975Z,78.30
2018-02-19T22:46:02.107Z,78.40
2018-02-19T22:48:32.077Z,78.00
2018-02-19T22:53:47.436Z,78.00
2018-02-19T22:56:21.446Z,78.20
2018-02-19T22:58:51.404Z,78.10
2018-02-19T23:01:20.693Z,78.10
2018-02-19T23:06:43.606Z,77.30
2018-02-19T23:09:12.733Z,77.40
2018-02-19T23:11:42.624Z,77.60
2018-02-19T23:14:11.766Z,77.70
2018-02-19T23:16:41.647Z,77.70
2018-02-19T23:19:11.983Z,77.70
2018-02-19T23:21:42.065Z,77.90
2018-02-19T23:26:56.208Z,77.70
2018-02-19T23:29:25.325Z,78.00
2018-02-19T23:31:54.447Z,78.50
2018-02-19T23:34:24.512Z,78.80
2018-02-19T23:36:57.820Z,78.70
2018-02-19T23:39:31.800Z,78.20
2018-02-19T23:42:01.254Z,78.10
2018-02-19T23:44:30.573Z,78.30
2018-02-19T23:46:59.976Z,77.90
2018-02-19T23:49:30.051Z,77.50
2018-02-19T23:51:59.934Z,77.60
2018-02-19T23:54:35.653Z,77.60
2018-02-19T23:57:05.528Z,77.80
2018-02-19T23:59:35.236Z,77.80
